createdAt,value
2017-10-10T00:00:25.829Z,19.61
2017-10-10T00:02:53.109Z,19.59
2017-10-10T00:05:20.408Z,19.59
2017-10-10T00:07:49.434Z,19.58
2017-10-10T00:10:16.724Z,19.58
2017-10-10T00:12:43.918Z,19.57
2017-10-10T00:15:11.140Z,19.57
2017-10-10T00:17:38.388Z,19.56
2017-10-10T00:20:05.737Z,19.55
2017-10-10T00:22:32.890Z,19.54
2017-10-10T00:25:00.144Z,19.54
2017-10-10T00:27:27.371Z,19.54
2017-10-10T00:29:54.708Z,19.53
2017-10-10T00:32:21.904Z,19.51
2017-10-10T00:34:49.098Z,19.50
2017-10-10T00:37:16.383Z,19.50
2017-10-10T00:39:43.806Z,19.50
2017-10-10T00:42:11.041Z,19.49
2017-10-10T00:44:38.238Z,19.48
2017-10-10T00:47:05.434Z,19.48
2017-10-10T00:49:32.656Z,19.46
2017-10-10T00:52:00.111Z,19.47
2017-10-10T00:54:27.397Z,19.45
2017-10-10T00:56:54.845Z,19.44
2017-10-10T00:59:22.126Z,19.44
2017-10-10T01:01:49.378Z,19.44
2017-10-10T01:04:16.639Z,19.46
2017-10-10T01:06:43.943Z,19.42
2017-10-10T01:09:11.169Z,19.39
2017-10-10T01:11:38.390Z,19.34
2017-10-10T01:14:05.766Z,19.31
2017-10-10T01:16:33.029Z,19.24
2017-10-10T01:19:00.282Z,19.20
2017-10-10T01:21:27.546Z,19.16
2017-10-10T01:23:54.994Z,19.11
2017-10-10T01:26:22.196Z,19.08
2017-10-10T01:28:49.437Z,19.05
2017-10-10T01:31:16.660Z,19.03
2017-10-10T01:33:44.186Z,19.01
2017-10-10T01:36:11.706Z,19.00
2017-10-10T01:38:38.945Z,18.98
2017-10-10T01:41:06.221Z,18.96
2017-10-10T01:43:33.459Z,18.96
2017-10-10T01:46:01.162Z,18.93
2017-10-10T01:48:28.342Z,18.92
2017-10-10T01:50:55.602Z,18.91
2017-10-10T01:53:22.753Z,18.90
2017-10-10T01:55:49.982Z,18.89
2017-10-10T01:58:17.263Z,18.88
2017-10-10T02:00:44.602Z,18.88
2017-10-10T02:03:11.913Z,18.88
2017-10-10T02:05:39.190Z,18.87
2017-10-10T02:08:06.520Z,18.88
2017-10-10T02:10:33.808Z,18.87
2017-10-10T02:13:01.082Z,18.88
2017-10-10T02:15:28.323Z,18.88
2017-10-10T02:17:55.565Z,18.88
2017-10-10T02:20:22.757Z,18.88
2017-10-10T02:22:49.987Z,18.89
2017-10-10T02:25:17.628Z,18.89
2017-10-10T02:27:44.818Z,18.89
2017-10-10T02:30:12.150Z,18.90
2017-10-10T02:32:39.510Z,18.90
2017-10-10T02:35:06.814Z,18.91
2017-10-10T02:37:34.132Z,18.91
2017-10-10T02:40:01.338Z,18.90
2017-10-10T02:42:28.497Z,18.88
2017-10-10T02:44:55.788Z,18.89
2017-10-10T02:47:23.034Z,18.89
2017-10-10T02:49:50.338Z,18.89
2017-10-10T02:52:17.515Z,18.89
2017-10-10T02:54:44.835Z,18.89
2017-10-10T02:57:11.998Z,18.87
2017-10-10T02:59:39.164Z,18.87
2017-10-10T03:02:06.401Z,18.88
2017-10-10T03:04:33.644Z,18.86
2017-10-10T03:07:00.843Z,18.85
2017-10-10T03:09:28.059Z,18.86
2017-10-10T03:11:55.304Z,18.89
2017-10-10T03:14:22.479Z,18.90
2017-10-10T03:16:49.709Z,18.91
2017-10-10T03:19:17.446Z,18.91
2017-10-10T03:21:44.711Z,18.92
2017-10-10T03:24:11.989Z,18.93
2017-10-10T03:26:39.204Z,18.94
2017-10-10T03:29:06.423Z,18.95
2017-10-10T03:31:33.716Z,18.96
2017-10-10T03:34:01.135Z,18.96
2017-10-10T03:36:28.339Z,18.98
2017-10-10T03:38:55.593Z,18.99
2017-10-10T03:41:23.004Z,18.99
2017-10-10T03:43:50.199Z,19.00
2017-10-10T03:46:17.664Z,19.00
2017-10-10T03:48:44.883Z,19.01
2017-10-10T03:51:12.053Z,19.01
2017-10-10T03:53:39.309Z,19.03
2017-10-10T03:56:06.542Z,19.03
2017-10-10T03:58:33.784Z,19.05
2017-10-10T04:01:01.203Z,19.10
2017-10-10T04:03:28.369Z,19.17
2017-10-10T04:05:55.594Z,19.23
2017-10-10T04:08:22.831Z,19.28
2017-10-10T04:10:50.038Z,19.34
2017-10-10T04:13:17.306Z,19.39
2017-10-10T04:15:44.518Z,19.45
2017-10-10T04:18:11.686Z,19.49
2017-10-10T04:20:38.942Z,19.53
2017-10-10T04:23:06.122Z,19.58
2017-10-10T04:25:33.421Z,19.61
2017-10-10T04:28:00.780Z,19.64
2017-10-10T04:30:28.053Z,19.68
2017-10-10T04:32:55.363Z,19.71
2017-10-10T04:35:22.842Z,19.75
2017-10-10T04:37:50.080Z,19.78
2017-10-10T04:40:17.267Z,19.81
2017-10-10T04:42:44.556Z,19.84
2017-10-10T04:45:11.890Z,19.86
2017-10-10T04:47:39.193Z,19.88
2017-10-10T04:50:06.399Z,19.91
2017-10-10T04:52:33.788Z,19.95
2017-10-10T04:55:01.534Z,19.98
2017-10-10T04:57:28.803Z,20.02
2017-10-10T04:59:56.694Z,20.06
2017-10-10T05:02:23.941Z,20.10
2017-10-10T05:04:51.190Z,20.14
2017-10-10T05:07:18.443Z,20.17
2017-10-10T05:09:45.972Z,20.21
2017-10-10T05:12:13.244Z,20.26
2017-10-10T05:14:40.531Z,20.30
2017-10-10T05:17:07.727Z,20.35
2017-10-10T05:19:35.002Z,20.42
2017-10-10T05:22:02.259Z,20.46
2017-10-10T05:24:29.770Z,20.50
2017-10-10T05:26:57.008Z,20.55
2017-10-10T05:29:24.487Z,20.58
2017-10-10T05:31:51.704Z,20.67
2017-10-10T05:34:19.020Z,20.73
2017-10-10T05:36:46.208Z,20.79
2017-10-10T05:39:13.592Z,20.84
2017-10-10T05:41:42.328Z,20.89
2017-10-10T05:44:09.571Z,20.95
2017-10-10T05:46:36.895Z,21.00
2017-10-10T05:49:04.132Z,21.05
2017-10-10T05:51:32.202Z,21.08
2017-10-10T05:53:59.608Z,21.15
2017-10-10T05:56:26.907Z,21.19
2017-10-10T05:58:54.382Z,21.26
2017-10-10T06:01:23.933Z,21.29
2017-10-10T06:06:24.271Z,21.36
2017-10-10T06:16:31.592Z,21.51
2017-10-10T06:24:05.427Z,21.64
2017-10-10T06:41:46.122Z,21.86
2017-10-10T06:51:48.152Z,22.05
2017-10-10T06:56:47.404Z,22.12
2017-10-10T07:04:31.776Z,22.22
2017-10-10T07:07:00.185Z,22.24
2017-10-10T07:09:29.733Z,22.28
2017-10-10T07:32:24.473Z,22.55
2017-10-10T07:39:56.118Z,22.62
2017-10-10T07:42:23.392Z,22.65
2017-10-10T07:44:54.619Z,22.68
2017-10-10T07:55:09.467Z,22.79
2017-10-10T07:57:36.744Z,22.85
2017-10-10T08:00:05.913Z,22.83
2017-10-10T08:02:36.105Z,22.82
2017-10-10T08:05:04.742Z,22.86
2017-10-10T08:07:32.358Z,22.88
2017-10-10T08:09:59.993Z,22.85
2017-10-10T08:12:29.813Z,22.89
2017-10-10T08:14:58.062Z,22.89
2017-10-10T08:17:25.922Z,22.91
2017-10-10T08:19:53.289Z,22.90
2017-10-10T08:22:20.627Z,22.98
2017-10-10T08:24:49.343Z,22.98
2017-10-10T08:27:16.637Z,22.97
2017-10-10T08:29:44.022Z,22.99
2017-10-10T08:34:44.424Z,22.97
2017-10-10T08:37:12.189Z,22.98
2017-10-10T08:47:16.932Z,23.03
2017-10-10T08:49:45.603Z,23.00
2017-10-10T08:52:12.865Z,22.99
2017-10-10T08:54:40.094Z,23.01
2017-10-10T08:57:07.638Z,23.03
2017-10-10T08:59:35.439Z,23.02
2017-10-10T09:02:03.008Z,23.03
2017-10-10T09:04:30.210Z,23.03
2017-10-10T09:06:57.535Z,23.05
2017-10-10T09:09:28.355Z,23.06
2017-10-10T09:11:56.992Z,23.06
2017-10-10T09:14:24.364Z,23.04
2017-10-10T09:19:24.838Z,23.04
2017-10-10T09:21:52.503Z,23.05
2017-10-10T09:24:23.597Z,23.06
2017-10-10T09:26:50.832Z,23.10
2017-10-10T09:29:19.676Z,23.10
2017-10-10T09:31:47.367Z,23.10
2017-10-10T09:44:36.419Z,23.16
2017-10-10T09:47:04.653Z,23.16
2017-10-10T09:49:31.936Z,23.18
2017-10-10T09:52:02.404Z,23.19
2017-10-10T09:57:04.946Z,23.22
2017-10-10T09:59:34.725Z,23.25
2017-10-10T10:02:03.107Z,23.30
2017-10-10T10:04:32.447Z,23.28
2017-10-10T10:09:34.819Z,23.31
2017-10-10T10:12:05.750Z,23.37
2017-10-10T10:22:20.576Z,23.39
2017-10-10T10:35:08.091Z,23.45
2017-10-10T11:16:01.824Z,23.78
2017-10-10T11:21:03.402Z,23.81
2017-10-10T11:46:43.670Z,24.01
2017-10-10T11:49:13.648Z,24.03
2017-10-10T11:59:29.193Z,24.05
2017-10-10T12:07:06.993Z,24.08
2017-10-10T12:12:09.198Z,24.15
2017-10-10T12:32:30.992Z,24.29
2017-10-10T13:00:34.047Z,24.45
2017-10-10T13:05:34.123Z,24.51
2017-10-10T13:20:44.454Z,24.62
2017-10-10T13:23:11.955Z,24.61
2017-10-10T13:46:11.195Z,24.70
2017-10-10T13:51:42.898Z,24.68
2017-10-10T13:54:14.358Z,24.70
2017-10-10T13:56:41.800Z,24.68
2017-10-10T13:59:11.436Z,24.70
2017-10-10T14:12:00.065Z,24.72
2017-10-10T14:27:07.596Z,24.69
2017-10-10T14:32:09.378Z,24.67
2017-10-10T14:34:36.617Z,24.65
2017-10-10T14:37:04.903Z,24.66
2017-10-10T14:44:40.221Z,24.66
2017-10-10T14:47:10.029Z,24.66
2017-10-10T14:49:37.515Z,24.65
2017-10-10T14:52:04.751Z,24.64
2017-10-10T14:54:31.942Z,24.62
2017-10-10T14:56:59.138Z,24.61
2017-10-10T14:59:26.451Z,24.61
2017-10-10T15:01:53.628Z,24.60
2017-10-10T15:04:20.882Z,24.60
2017-10-10T15:06:48.088Z,24.59
2017-10-10T15:09:16.379Z,24.58
2017-10-10T15:11:43.879Z,24.56
2017-10-10T15:14:13.291Z,24.57
2017-10-10T15:16:40.652Z,24.56
2017-10-10T15:19:07.892Z,24.56
2017-10-10T15:21:35.123Z,24.57
2017-10-10T15:24:02.314Z,24.55
2017-10-10T15:26:29.618Z,24.55
2017-10-10T15:28:56.847Z,24.54
2017-10-10T15:31:24.854Z,24.46
2017-10-10T15:36:24.557Z,24.41
2017-10-10T15:38:51.825Z,24.39
2017-10-10T15:46:25.807Z,24.35
2017-10-10T15:48:53.751Z,24.31
2017-10-10T15:51:20.956Z,24.31
2017-10-10T15:53:48.240Z,24.28
2017-10-10T15:56:15.429Z,24.25
2017-10-10T15:58:42.716Z,24.26
2017-10-10T16:01:10.520Z,24.24
2017-10-10T16:03:37.740Z,24.20
2017-10-10T16:06:04.999Z,24.17
2017-10-10T16:08:32.206Z,24.15
2017-10-10T16:10:59.482Z,24.13
2017-10-10T16:13:26.729Z,24.08
2017-10-10T16:15:53.987Z,24.06
2017-10-10T16:18:21.285Z,24.02
2017-10-10T16:21:05.641Z,24.03
2017-10-10T16:23:32.963Z,24.01
2017-10-10T16:26:00.178Z,24.00
2017-10-10T16:28:27.459Z,23.96
2017-10-10T16:30:54.686Z,23.93
2017-10-10T16:33:21.983Z,23.87
2017-10-10T16:35:49.188Z,23.85
2017-10-10T16:38:17.226Z,23.80
2017-10-10T16:40:44.417Z,23.79
2017-10-10T16:43:18.381Z,23.76
2017-10-10T16:46:02.393Z,23.75
2017-10-10T16:51:22.794Z,23.71
2017-10-10T16:53:50.810Z,23.67
2017-10-10T16:56:18.176Z,23.66
2017-10-10T16:58:45.524Z,23.63
2017-10-10T17:01:12.699Z,23.60
2017-10-10T17:03:39.874Z,23.57
2017-10-10T17:06:07.104Z,23.58
2017-10-10T17:08:34.301Z,23.59
2017-10-10T17:11:01.507Z,23.58
2017-10-10T17:13:28.745Z,23.57
2017-10-10T17:16:16.795Z,23.60
2017-10-10T17:18:44.047Z,23.61
2017-10-10T17:21:11.289Z,23.60
2017-10-10T17:23:38.458Z,23.61
2017-10-10T17:26:05.719Z,23.62
2017-10-10T17:28:33.111Z,23.62
2017-10-10T17:31:00.267Z,23.63
2017-10-10T17:33:48.576Z,23.64
2017-10-10T17:36:15.843Z,23.63
2017-10-10T17:38:44.568Z,23.63
2017-10-10T17:41:11.800Z,23.63
2017-10-10T17:43:46.588Z,23.62
2017-10-10T17:46:13.806Z,23.61
2017-10-10T17:48:54.039Z,23.60
2017-10-10T17:51:21.294Z,23.59
2017-10-10T17:53:48.530Z,23.58
2017-10-10T17:56:15.726Z,23.58
2017-10-10T17:58:50.453Z,23.57
2017-10-10T18:01:17.707Z,23.55
2017-10-10T18:06:22.611Z,23.53
2017-10-10T18:08:50.040Z,23.52
2017-10-10T18:11:17.254Z,23.51
2017-10-10T18:13:44.494Z,23.48
2017-10-10T18:16:24.772Z,23.47
2017-10-10T18:18:52.021Z,23.47
2017-10-10T18:21:19.193Z,23.43
2017-10-10T18:23:46.377Z,23.39
2017-10-10T18:26:13.612Z,23.33
2017-10-10T18:28:41.188Z,23.24
2017-10-10T18:31:13.387Z,23.17
2017-10-10T18:33:40.606Z,23.11
2017-10-10T18:36:07.810Z,23.05
2017-10-10T18:38:34.985Z,22.99
2017-10-10T18:41:02.159Z,22.94
2017-10-10T18:43:29.409Z,22.90
2017-10-10T18:45:56.586Z,22.85
2017-10-10T18:48:23.758Z,22.78
2017-10-10T18:50:51.001Z,22.74
2017-10-10T18:53:18.201Z,22.70
2017-10-10T18:55:45.414Z,22.67
2017-10-10T18:58:12.627Z,22.62
2017-10-10T19:00:39.845Z,22.59
2017-10-10T19:03:07.082Z,22.55
2017-10-10T19:05:47.351Z,22.52
2017-10-10T19:08:14.603Z,22.48
2017-10-10T19:10:41.845Z,22.45
2017-10-10T19:13:09.257Z,22.43
2017-10-10T19:15:36.456Z,22.39
2017-10-10T19:18:03.651Z,22.36
2017-10-10T19:20:31.530Z,22.32
2017-10-10T19:23:06.185Z,22.28
2017-10-10T19:25:33.386Z,22.26
2017-10-10T19:28:07.590Z,22.23
2017-10-10T19:30:34.814Z,22.19
2017-10-10T19:33:01.981Z,22.17
2017-10-10T19:35:50.770Z,22.15
2017-10-10T19:38:31.695Z,22.04
2017-10-10T19:40:58.886Z,22.10
2017-10-10T19:43:26.083Z,22.06
2017-10-10T19:45:53.352Z,22.03
2017-10-10T19:48:20.590Z,22.02
2017-10-10T19:50:47.783Z,21.98
2017-10-10T19:53:14.993Z,21.95
2017-10-10T19:55:42.148Z,21.94
2017-10-10T19:58:09.470Z,21.91
2017-10-10T20:00:36.656Z,21.90
2017-10-10T20:03:03.954Z,21.88
2017-10-10T20:05:31.138Z,21.86
2017-10-10T20:07:58.358Z,21.83
2017-10-10T20:10:25.527Z,21.82
2017-10-10T20:12:52.780Z,21.80
2017-10-10T20:15:20.014Z,21.77
2017-10-10T20:17:47.213Z,21.75
2017-10-10T20:20:14.401Z,21.75
2017-10-10T20:22:44.253Z,21.73
2017-10-10T20:25:11.480Z,21.72
2017-10-10T20:27:38.676Z,21.70
2017-10-10T20:30:05.847Z,21.69
2017-10-10T20:32:33.055Z,21.68
2017-10-10T20:35:00.306Z,21.66
2017-10-10T20:37:27.498Z,21.63
2017-10-10T20:39:54.763Z,21.62
2017-10-10T20:42:21.937Z,21.60
2017-10-10T20:44:49.200Z,21.58
2017-10-10T20:47:16.575Z,21.57
2017-10-10T20:49:43.799Z,21.55
2017-10-10T20:52:11.050Z,21.53
2017-10-10T20:54:38.334Z,21.52
2017-10-10T20:57:05.601Z,21.49
2017-10-10T20:59:33.532Z,21.49
2017-10-10T21:02:00.735Z,21.47
2017-10-10T21:04:27.954Z,21.46
2017-10-10T21:06:56.206Z,21.44
2017-10-10T21:09:23.458Z,21.42
2017-10-10T21:11:50.635Z,21.41
2017-10-10T21:14:18.272Z,21.40
2017-10-10T21:16:45.494Z,21.39
2017-10-10T21:19:13.841Z,21.36
2017-10-10T21:21:41.121Z,21.33
2017-10-10T21:24:09.769Z,21.32
2017-10-10T21:26:37.042Z,21.32
2017-10-10T21:29:04.267Z,21.31
2017-10-10T21:31:31.418Z,21.30
2017-10-10T21:33:58.590Z,21.28
2017-10-10T21:36:25.909Z,21.26
2017-10-10T21:38:53.254Z,21.24
2017-10-10T21:41:20.423Z,21.24
2017-10-10T21:43:47.999Z,21.23
2017-10-10T21:46:15.172Z,21.23
2017-10-10T21:48:42.385Z,21.21
2017-10-10T21:51:09.587Z,21.20
2017-10-10T21:53:36.810Z,21.18
2017-10-10T21:56:04.038Z,21.17
2017-10-10T21:58:31.289Z,21.17
2017-10-10T22:00:58.510Z,21.15
2017-10-10T22:03:25.697Z,21.14
2017-10-10T22:05:53.133Z,21.13
2017-10-10T22:08:20.354Z,21.11
2017-10-10T22:10:47.582Z,21.10
2017-10-10T22:13:14.743Z,21.09
2017-10-10T22:15:41.900Z,21.08
2017-10-10T22:18:09.129Z,21.06
2017-10-10T22:20:36.355Z,21.06
2017-10-10T22:23:03.538Z,21.04
2017-10-10T22:25:30.699Z,21.01
2017-10-10T22:27:57.951Z,21.01
2017-10-10T22:30:35.402Z,21.01
2017-10-10T22:33:02.672Z,20.99
2017-10-10T22:35:29.899Z,20.98
2017-10-10T22:37:57.175Z,20.97
2017-10-10T22:40:24.431Z,20.96
2017-10-10T22:42:51.685Z,20.95
2017-10-10T22:45:18.992Z,20.94
2017-10-10T22:47:46.203Z,20.93
2017-10-10T22:50:13.518Z,20.91
2017-10-10T22:52:40.749Z,20.90
2017-10-10T22:55:08.001Z,20.91
2017-10-10T22:57:35.203Z,20.90
2017-10-10T23:00:10.309Z,20.87
2017-10-10T23:02:37.466Z,20.88
2017-10-10T23:05:04.685Z,20.88
2017-10-10T23:07:31.921Z,20.86
2017-10-10T23:10:07.449Z,20.85
2017-10-10T23:12:34.913Z,20.84
2017-10-10T23:15:02.153Z,20.83
2017-10-10T23:17:29.306Z,20.82
2017-10-10T23:19:56.492Z,20.81
2017-10-10T23:22:23.714Z,20.79
2017-10-10T23:24:50.968Z,20.79
2017-10-10T23:27:18.201Z,20.78
2017-10-10T23:29:45.542Z,20.77
2017-10-10T23:32:14.229Z,20.75
2017-10-10T23:34:41.481Z,20.74
2017-10-10T23:37:08.684Z,20.72
2017-10-10T23:39:50.569Z,20.71
2017-10-10T23:42:17.767Z,20.70
2017-10-10T23:44:45.030Z,20.67
2017-10-10T23:47:12.500Z,20.68
2017-10-10T23:52:13.075Z,20.66
2017-10-10T23:54:50.344Z,20.65
2017-10-10T23:57:30.349Z,20.64
2017-10-10T23:59:57.674Z,20.63
